Airfield :
LOGIN :

Register | Disclaimer

   EN    FR    IT 

 










Legend :    VFR   Marginal VFR   IFR   Intensive IFR   Very Intensive IFR
Visi :
Ceiling :
>= 8 km
>= 3000ft
5 to 8 km
1000 to 3000 ft
1500m to 5 km
500 to 1000 ft
800 to 1500m
200 to 500 ft
< 800m
< 200 ft
Symbols :   Thunderstorms  Fog  Heavy snow  Heavy precipitations  Wind > 20 kt
SIGMETs :     Misc.  Thunderstorms  Icing  Turbulence  Mountain Waves  Volcanic Ashes






- Airport Elevation : 238 ft
- IATA code : UAB


LTAG - Incirlik AB

CURRENT METAR :
  • 232320Z 02006KT CAVOK 05/01 Q1020 NOSIG RMK SKC

EXPIRED METARs :
  • 232250Z 02009KT CAVOK 06/02 Q1020 NOSIG RMK SKC
  • 232220Z 04006KT CAVOK 06/03 Q1021 NOSIG RMK SKC
  • 232150Z 01006KT CAVOK 06/04 Q1021 NOSIG
  • 232120Z 03006KT CAVOK 06/04 Q1021 NOSIG RMK SKC
  • 232050Z 03006KT CAVOK 06/04 Q1021 NOSIG RMK SKC

TAF TAF LTAG
Valid from the 24 at 00:00 until the 25 at 00:00 UTC


232240Z 2400/2424 VRB02KT CAVOK



MET'MAP, your aeronautical weather chart ! - Copyright ORBIFLY December 2007 - Disclaimer

ORBIFLY MET'MAP TEAM :

Programming & Development : Alexandra Zaïnal
Concept & original design : Baudouin d'Aumeries
Assistance for programming : Marc-Olivier Méhu
Technical & hardware support : Manuel Goepfert

Contact : metmap@orbifly.com




SOURCES & CREDITS :

   NOAA